Time;durP1;ratioP1;P1;durP2;ratioP2;P2;SDS_P1;SDS_P2;PMS_P1;PMS_P2;Temp;Humidity;BMP_temperature;BMP_pressure;BME280_temperature;BME280_humidity;BME280_pressure;Samples;Min_cycle;Max_cycle;Signal;HPM_P1;HPM_P2
2021/12/19 00:01:45;;;;;;;54.33;36.08;;;;;;;;;;4995523;28;20058;-70
2021/12/19 00:09:31;;;;;;;51.90;38.75;;;;;;;;;;4995647;28;20050;-71
2021/12/19 00:11:58;;;;;;;51.53;37.70;;;;;;;;;;4995305;28;20038;-70
2021/12/19 00:14:25;;;;;;;41.25;33.08;;;;;;;;;;4994286;28;20042;-71
2021/12/19 00:16:54;;;;;;;46.80;37.78;;;;;;;;;;4995626;28;20496;-71
2021/12/19 00:19:21;;;;;;;43.88;31.38;;;;;;;;;;4977961;28;20490;-70
2021/12/19 00:21:48;;;;;;;43.90;31.58;;;;;;;;;;4995554;28;20493;-70
2021/12/19 00:24:16;;;;;;;40.78;31.10;;;;;;;;;;4995358;28;20042;-70
2021/12/19 00:26:43;;;;;;;33.22;27.05;;;;;;;;;;4988868;28;20049;-70
2021/12/19 00:29:09;;;;;;;32.00;26.35;;;;;;;;;;4987649;28;20125;-70
2021/12/19 00:31:37;;;;;;;35.22;27.45;;;;;;;;;;4988833;28;20038;-70
2021/12/19 00:34:04;;;;;;;32.58;27.08;;;;;;;;;;4988957;28;20061;-71
2021/12/19 00:36:31;;;;;;;33.42;24.52;;;;;;;;;;4995130;28;20069;-70
2021/12/19 00:38:58;;;;;;;29.42;24.58;;;;;;;;;;4995132;28;20061;-70
2021/12/19 00:41:25;;;;;;;32.70;24.38;;;;;;;;;;4994671;28;20035;-70
2021/12/19 00:44:07;;;;;;;32.72;23.15;;;;;;;;;;4995110;28;20417;-70
2021/12/19 00:46:43;;;;;;;31.40;23.15;;;;;;;;;;4994862;28;20057;-70
2021/12/19 00:49:11;;;;;;;35.97;24.48;;;;;;;;;;4994833;28;20057;-70
2021/12/19 00:51:39;;;;;;;33.08;25.27;;;;;;;;;;4994557;28;20046;-70
2021/12/19 00:54:09;;;;;;;31.65;25.42;;;;;;;;;;4994828;28;20096;-71
2021/12/19 00:56:42;;;;;;;30.35;24.10;;;;;;;;;;4994758;28;20070;-70
2021/12/19 00:59:09;;;;;;;30.70;23.08;;;;;;;;;;4995162;28;20070;-70
2021/12/19 01:01:42;;;;;;;27.42;22.33;;;;;;;;;;4995219;28;20149;-70
2021/12/19 01:04:11;;;;;;;30.00;23.10;;;;;;;;;;4994355;28;20485;-71
2021/12/19 01:06:40;;;;;;;32.90;26.05;;;;;;;;;;5004134;28;20042;-71
2021/12/19 01:09:08;;;;;;;32.05;23.50;;;;;;;;;;5013743;28;20053;-71
2021/12/19 01:11:36;;;;;;;32.05;23.42;;;;;;;;;;5014018;28;20046;-71
2021/12/19 01:14:03;;;;;;;39.03;26.20;;;;;;;;;;5013761;28;20072;-71
2021/12/19 01:16:31;;;;;;;33.45;23.42;;;;;;;;;;5014306;28;20042;-71
2021/12/19 01:18:58;;;;;;;33.70;25.73;;;;;;;;;;5013670;28;20049;-70
2021/12/19 01:21:25;;;;;;;30.35;25.38;;;;;;;;;;5013935;28;20042;-69
2021/12/19 01:23:52;;;;;;;30.30;23.83;;;;;;;;;;5013219;28;20519;-71
2021/12/19 01:26:19;;;;;;;31.08;24.80;;;;;;;;;;5013945;28;20042;-70
2021/12/19 01:28:46;;;;;;;35.88;25.80;;;;;;;;;;5013866;28;20497;-70
2021/12/19 01:31:13;;;;;;;34.25;24.60;;;;;;;;;;5013213;28;20046;-70
2021/12/19 01:33:40;;;;;;;28.75;24.23;;;;;;;;;;5012994;28;20057;-69
2021/12/19 01:36:07;;;;;;;35.13;23.67;;;;;;;;;;5013331;28;20092;-70
2021/12/19 01:38:34;;;;;;;29.92;23.20;;;;;;;;;;4994783;28;20071;-70
2021/12/19 01:41:01;;;;;;;30.80;24.10;;;;;;;;;;4993610;28;20042;-70
2021/12/19 01:43:31;;;;;;;31.60;25.08;;;;;;;;;;4997460;28;20092;-70
2021/12/19 01:45:58;;;;;;;33.92;24.75;;;;;;;;;;5013310;28;20056;-70
2021/12/19 01:48:26;;;;;;;33.97;26.65;;;;;;;;;;5013193;28;20073;-70
2021/12/19 01:50:53;;;;;;;37.45;28.90;;;;;;;;;;5013423;28;20053;-70
2021/12/19 01:53:21;;;;;;;43.75;30.92;;;;;;;;;;5013111;28;20056;-70
2021/12/19 01:55:49;;;;;;;37.47;29.70;;;;;;;;;;5013478;28;20034;-70
2021/12/19 01:58:16;;;;;;;38.97;31.77;;;;;;;;;;5012990;28;20488;-70
2021/12/19 02:00:53;;;;;;;37.95;29.73;;;;;;;;;;5013504;28;20112;-70
2021/12/19 02:03:21;;;;;;;37.92;30.52;;;;;;;;;;5013152;28;20499;-68
2021/12/19 02:05:49;;;;;;;39.05;30.65;;;;;;;;;;5012826;28;20049;-68
2021/12/19 02:08:17;;;;;;;42.83;32.10;;;;;;;;;;5012789;28;20050;-68
2021/12/19 02:10:44;;;;;;;43.25;33.08;;;;;;;;;;5013064;28;20381;-68
2021/12/19 02:13:13;;;;;;;45.65;33.92;;;;;;;;;;5013070;28;20052;-69
2021/12/19 02:15:41;;;;;;;49.28;35.63;;;;;;;;;;5012970;28;20046;-69
2021/12/19 02:18:18;;;;;;;48.15;33.03;;;;;;;;;;5012572;28;20061;-70
2021/12/19 02:20:50;;;;;;;42.50;31.88;;;;;;;;;;5012899;28;20050;-69
2021/12/19 02:23:18;;;;;;;49.90;34.53;;;;;;;;;;5012742;28;20502;-68
2021/12/19 02:25:46;;;;;;;47.28;32.20;;;;;;;;;;4995033;28;20034;-70
2021/12/19 02:28:13;;;;;;;44.03;32.28;;;;;;;;;;5011972;28;20045;-71
2021/12/19 02:30:40;;;;;;;41.42;28.52;;;;;;;;;;5012484;28;20060;-69
2021/12/19 02:33:12;;;;;;;41.90;34.13;;;;;;;;;;4995475;28;20057;-70
2021/12/19 02:35:41;;;;;;;43.80;32.28;;;;;;;;;;5012599;28;20042;-70
2021/12/19 02:48:56;;;;;;;38.83;28.42;;;;;;;;;;5016769;28;20038;-71
2021/12/19 02:51:24;;;;;;;36.22;30.23;;;;;;;;;;5016700;28;20041;-72
2021/12/19 02:53:51;;;;;;;38.35;26.85;;;;;;;;;;5016972;28;20112;-70
2021/12/19 02:56:20;;;;;;;38.28;29.05;;;;;;;;;;5015710;28;20071;-71
2021/12/19 02:58:47;;;;;;;38.95;29.38;;;;;;;;;;5016348;28;20044;-71
2021/12/19 03:01:17;;;;;;;39.50;32.47;;;;;;;;;;5016707;28;20065;-71
2021/12/19 03:03:44;;;;;;;35.20;29.15;;;;;;;;;;5016546;28;20045;-70
2021/12/19 03:06:11;;;;;;;33.60;28.27;;;;;;;;;;5016792;28;20115;-73
2021/12/19 03:08:44;;;;;;;37.45;27.45;;;;;;;;;;5015976;28;20488;-69
2021/12/19 03:11:45;;;;;;;39.42;29.40;;;;;;;;;;5016485;28;20476;-70
2021/12/19 03:19:30;;;;;;;35.97;31.13;;;;;;;;;;5016100;28;20041;-70
2021/12/19 03:21:56;;;;;;;38.83;34.58;;;;;;;;;;5016263;28;20496;-69
2021/12/19 03:24:23;;;;;;;47.05;35.10;;;;;;;;;;5015883;28;20042;-70
2021/12/19 03:26:51;;;;;;;42.38;35.22;;;;;;;;;;5016364;28;20096;-70
2021/12/19 03:29:18;;;;;;;42.33;33.67;;;;;;;;;;5016055;28;20069;-70
2021/12/19 03:31:45;;;;;;;43.08;33.83;;;;;;;;;;5015946;28;20041;-69
2021/12/19 03:34:12;;;;;;;36.22;32.00;;;;;;;;;;5015796;28;20064;-70
2021/12/19 03:36:39;;;;;;;41.58;32.25;;;;;;;;;;5015625;28;20042;-70
2021/12/19 03:39:14;;;;;;;36.85;27.88;;;;;;;;;;5015826;28;20042;-70
2021/12/19 03:41:42;;;;;;;36.03;28.25;;;;;;;;;;4998287;28;20042;-71
2021/12/19 03:44:09;;;;;;;35.05;26.90;;;;;;;;;;5016113;28;20061;-71
2021/12/19 03:46:36;;;;;;;38.60;29.58;;;;;;;;;;5015433;28;20053;-71
2021/12/19 03:49:03;;;;;;;32.60;27.10;;;;;;;;;;5015467;28;20038;-71
2021/12/19 03:51:30;;;;;;;37.28;27.65;;;;;;;;;;5016042;28;20056;-71
2021/12/19 03:53:57;;;;;;;47.95;35.17;;;;;;;;;;5015715;28;20132;-71
2021/12/19 03:56:25;;;;;;;47.63;38.10;;;;;;;;;;5015696;28;20042;-71
2021/12/19 03:58:52;;;;;;;47.13;33.47;;;;;;;;;;4998145;28;20061;-71
2021/12/19 04:01:19;;;;;;;40.38;30.73;;;;;;;;;;5015731;28;20042;-71
2021/12/19 04:03:47;;;;;;;40.55;29.60;;;;;;;;;;5015206;28;20050;-70
2021/12/19 04:06:14;;;;;;;43.08;29.40;;;;;;;;;;5015391;28;20045;-70
2021/12/19 04:08:41;;;;;;;36.80;28.73;;;;;;;;;;4979195;28;20038;-70
2021/12/19 04:11:08;;;;;;;38.55;30.50;;;;;;;;;;4990144;28;20511;-71
2021/12/19 04:13:35;;;;;;;37.83;30.48;;;;;;;;;;5006971;28;20050;-71
2021/12/19 04:16:02;;;;;;;38.90;29.35;;;;;;;;;;5014969;28;20041;-71
2021/12/19 04:18:29;;;;;;;36.33;27.88;;;;;;;;;;5014619;28;20041;-71
2021/12/19 04:20:56;;;;;;;32.00;27.20;;;;;;;;;;5014824;28;20084;-71
2021/12/19 04:23:23;;;;;;;40.38;31.23;;;;;;;;;;5014699;28;20068;-71
2021/12/19 04:25:51;;;;;;;42.40;29.90;;;;;;;;;;5014144;28;20042;-69
2021/12/19 04:28:18;;;;;;;39.33;29.98;;;;;;;;;;5014595;28;20120;-70
2021/12/19 04:30:46;;;;;;;39.95;31.30;;;;;;;;;;5014204;28;20057;-71
2021/12/19 04:33:13;;;;;;;37.97;30.67;;;;;;;;;;5014278;28;20519;-70
2021/12/19 04:35:44;;;;;;;38.97;33.35;;;;;;;;;;4989158;28;20043;-70
2021/12/19 04:44:30;;;;;;;36.35;29.48;;;;;;;;;;4984566;28;20054;-69
2021/12/19 05:16:06;;;;;;;32.72;23.27;;;;;;;;;;5013954;28;20108;-69
2021/12/19 05:18:36;;;;;;;28.35;21.67;;;;;;;;;;5014260;28;20045;-69
2021/12/19 05:21:10;;;;;;;31.10;21.42;;;;;;;;;;5013651;28;20046;-71
2021/12/19 05:26:14;;;;;;;29.80;23.30;;;;;;;;;;5004476;28;20121;-69
2021/12/19 05:28:41;;;;;;;28.88;24.50;;;;;;;;;;4989077;28;20034;-75
2021/12/19 05:31:08;;;;;;;37.92;27.17;;;;;;;;;;4987190;28;20039;-75
2021/12/19 05:33:35;;;;;;;36.97;26.55;;;;;;;;;;4988062;28;20105;-75
2021/12/19 05:46:53;;;;;;;35.60;25.85;;;;;;;;;;4989740;28;20042;-76
2021/12/19 05:49:20;;;;;;;42.30;27.98;;;;;;;;;;4990068;28;20128;-77
2021/12/19 05:51:47;;;;;;;35.05;27.90;;;;;;;;;;4986211;28;20038;-75
2021/12/19 05:54:14;;;;;;;37.50;30.38;;;;;;;;;;4987404;28;20073;-76
2021/12/19 05:56:41;;;;;;;32.47;23.92;;;;;;;;;;4992413;28;20043;-76
2021/12/19 05:59:09;;;;;;;30.58;22.40;;;;;;;;;;4991398;28;20386;-79
2021/12/19 06:01:38;;;;;;;29.02;21.02;;;;;;;;;;4989683;28;20505;-76
2021/12/19 06:04:06;;;;;;;29.75;22.23;;;;;;;;;;4988156;28;20042;-79
2021/12/19 06:06:33;;;;;;;23.05;18.58;;;;;;;;;;4991682;28;20366;-78
2021/12/19 06:09:00;;;;;;;24.45;19.17;;;;;;;;;;4994472;28;20046;-76
2021/12/19 06:11:28;;;;;;;26.90;19.80;;;;;;;;;;4984941;28;20510;-81
2021/12/19 06:13:55;;;;;;;23.58;18.90;;;;;;;;;;4988823;28;20047;-81
2021/12/19 06:16:23;;;;;;;21.70;17.45;;;;;;;;;;4990564;28;20043;-77
2021/12/19 06:18:50;;;;;;;20.38;15.13;;;;;;;;;;4992880;28;20153;-77
2021/12/19 06:21:16;;;;;;;27.67;22.00;;;;;;;;;;4991728;28;20489;-77
2021/12/19 06:23:43;;;;;;;33.35;25.33;;;;;;;;;;4988608;28;20062;-75
2021/12/19 06:26:11;;;;;;;32.35;23.73;;;;;;;;;;4988828;28;20129;-73
2021/12/19 06:28:39;;;;;;;34.63;26.58;;;;;;;;;;4992964;28;20134;-72
2021/12/19 06:31:07;;;;;;;35.13;24.60;;;;;;;;;;4989779;28;20054;-73
2021/12/19 06:33:34;;;;;;;31.45;23.58;;;;;;;;;;4945889;28;1230443;-72
2021/12/19 06:36:01;;;;;;;28.55;22.75;;;;;;;;;;4989596;28;20043;-74
2021/12/19 06:38:28;;;;;;;27.63;21.45;;;;;;;;;;4991562;28;20049;-74
2021/12/19 06:40:55;;;;;;;33.60;24.63;;;;;;;;;;4991029;28;20049;-74
2021/12/19 06:43:22;;;;;;;43.53;37.95;;;;;;;;;;4989402;28;20100;-75
2021/12/19 06:45:49;;;;;;;24.63;20.48;;;;;;;;;;4992464;28;20043;-75
2021/12/19 06:48:18;;;;;;;22.27;18.75;;;;;;;;;;4989732;28;20753;-74
2021/12/19 06:50:45;;;;;;;19.65;15.80;;;;;;;;;;4991934;28;20054;-74
2021/12/19 06:53:12;;;;;;;19.17;14.52;;;;;;;;;;4991844;28;20054;-75
2021/12/19 06:55:39;;;;;;;22.02;14.38;;;;;;;;;;4988572;28;20042;-75
2021/12/19 06:58:06;;;;;;;15.25;12.52;;;;;;;;;;4989995;28;20042;-75
2021/12/19 07:00:33;;;;;;;13.70;11.80;;;;;;;;;;4990595;28;20046;-75
2021/12/19 07:03:00;;;;;;;14.63;12.82;;;;;;;;;;4992390;28;20045;-76
2021/12/19 07:05:27;;;;;;;17.83;12.23;;;;;;;;;;4990678;28;20046;-75
2021/12/19 07:07:55;;;;;;;18.40;12.38;;;;;;;;;;4989669;28;20089;-75
2021/12/19 07:10:21;;;;;;;14.18;11.90;;;;;;;;;;4990691;28;20485;-75
2021/12/19 07:12:48;;;;;;;15.77;13.90;;;;;;;;;;4994770;28;20053;-76
2021/12/19 07:15:17;;;;;;;21.10;16.42;;;;;;;;;;4990452;28;20042;-76
2021/12/19 07:17:45;;;;;;;17.50;15.05;;;;;;;;;;4988716;28;20042;-74
2021/12/19 07:20:12;;;;;;;17.95;13.45;;;;;;;;;;4989269;28;20051;-74
2021/12/19 07:22:39;;;;;;;22.55;16.35;;;;;;;;;;4989682;28;20034;-76
2021/12/19 07:25:06;;;;;;;18.65;15.18;;;;;;;;;;4993634;28;20046;-72
2021/12/19 07:27:33;;;;;;;18.80;13.98;;;;;;;;;;4990623;28;20038;-75
2021/12/19 07:30:00;;;;;;;18.60;13.70;;;;;;;;;;4992285;28;20133;-75
2021/12/19 07:32:27;;;;;;;16.52;13.15;;;;;;;;;;4993583;28;20049;-72
2021/12/19 07:35:14;;;;;;;15.10;12.63;;;;;;;;;;4990997;28;20501;-70
2021/12/19 07:37:41;;;;;;;17.52;13.40;;;;;;;;;;4999576;28;20046;-75
2021/12/19 07:40:13;;;;;;;16.73;14.23;;;;;;;;;;4995340;28;20039;-72
2021/12/19 07:42:41;;;;;;;19.92;14.27;;;;;;;;;;4992872;28;20058;-72
2021/12/19 07:45:12;;;;;;;15.98;14.27;;;;;;;;;;4994526;28;20054;-71
2021/12/19 07:47:40;;;;;;;17.98;14.13;;;;;;;;;;4997258;28;20058;-74
2021/12/19 07:50:08;;;;;;;16.92;13.90;;;;;;;;;;4963704;28;20093;-73
2021/12/19 07:52:35;;;;;;;19.88;14.93;;;;;;;;;;4985574;28;20042;-73
2021/12/19 07:55:04;;;;;;;18.95;14.60;;;;;;;;;;4995985;28;20409;-68
2021/12/19 07:57:31;;;;;;;20.77;14.85;;;;;;;;;;4991420;28;20042;-70
2021/12/19 07:59:58;;;;;;;26.13;19.27;;;;;;;;;;4996799;28;20042;-70
2021/12/19 08:02:24;;;;;;;27.33;21.92;;;;;;;;;;4993283;28;20042;-72
2021/12/19 08:04:51;;;;;;;30.63;24.42;;;;;;;;;;4992299;28;20047;-71
2021/12/19 08:07:23;;;;;;;31.63;24.33;;;;;;;;;;4990795;28;20150;-72
2021/12/19 08:12:26;;;;;;;28.85;23.98;;;;;;;;;;4991677;28;20050;-71
2021/12/19 08:14:53;;;;;;;36.38;28.77;;;;;;;;;;4991945;28;20050;-70
2021/12/19 08:17:21;;;;;;;31.65;27.60;;;;;;;;;;4993089;28;20046;-71
2021/12/19 08:19:48;;;;;;;30.50;25.45;;;;;;;;;;4991815;28;20042;-70
2021/12/19 08:22:15;;;;;;;35.80;26.35;;;;;;;;;;4990444;28;20047;-71
2021/12/19 08:24:45;;;;;;;38.33;30.52;;;;;;;;;;4991322;28;20035;-70
2021/12/19 08:27:12;;;;;;;35.40;26.00;;;;;;;;;;4991986;28;20685;-74
2021/12/19 08:29:39;;;;;;;38.05;27.38;;;;;;;;;;4992862;28;20045;-72
2021/12/19 08:32:07;;;;;;;35.38;29.58;;;;;;;;;;4989269;28;20046;-71
2021/12/19 08:34:34;;;;;;;40.55;27.13;;;;;;;;;;4988093;28;20440;-69
2021/12/19 08:37:02;;;;;;;31.30;25.33;;;;;;;;;;4980102;28;20046;-68
2021/12/19 08:39:31;;;;;;;33.08;28.05;;;;;;;;;;4985051;28;20042;-69
2021/12/19 08:41:58;;;;;;;33.45;28.80;;;;;;;;;;4981174;28;20181;-73
2021/12/19 08:44:25;;;;;;;38.13;30.25;;;;;;;;;;4990014;28;20042;-73
2021/12/19 08:46:52;;;;;;;38.45;30.88;;;;;;;;;;4991340;28;20081;-73
2021/12/19 08:49:19;;;;;;;34.25;27.50;;;;;;;;;;4983673;28;20031;-73
2021/12/19 08:51:46;;;;;;;31.08;26.23;;;;;;;;;;4980422;28;20089;-71
2021/12/19 08:54:13;;;;;;;35.63;28.88;;;;;;;;;;4982167;28;20706;-68
2021/12/19 08:56:40;;;;;;;31.17;26.17;;;;;;;;;;4985750;28;20046;-72
2021/12/19 08:59:08;;;;;;;33.22;28.08;;;;;;;;;;4987220;28;20043;-72
2021/12/19 09:01:36;;;;;;;33.63;28.42;;;;;;;;;;4986367;28;20138;-68
2021/12/19 09:04:04;;;;;;;36.00;28.25;;;;;;;;;;4982278;28;20062;-75
2021/12/19 09:06:32;;;;;;;28.48;25.42;;;;;;;;;;4977421;28;20039;-67
2021/12/19 09:08:59;;;;;;;34.75;28.38;;;;;;;;;;4976647;28;20039;-65
2021/12/19 09:11:26;;;;;;;31.70;28.27;;;;;;;;;;4982054;28;20073;-67
2021/12/19 09:13:53;;;;;;;30.05;26.17;;;;;;;;;;4981075;28;20043;-67
2021/12/19 09:16:20;;;;;;;33.70;28.02;;;;;;;;;;4983467;28;20050;-65
2021/12/19 09:19:07;;;;;;;34.25;28.88;;;;;;;;;;4976773;28;20093;-64
2021/12/19 09:21:34;;;;;;;35.33;29.75;;;;;;;;;;4986520;28;20042;-66
2021/12/19 09:24:01;;;;;;;35.67;30.40;;;;;;;;;;4985862;28;20093;-67
2021/12/19 09:26:28;;;;;;;34.00;29.75;;;;;;;;;;4985446;28;20069;-66
2021/12/19 09:28:55;;;;;;;33.45;28.98;;;;;;;;;;4979996;28;20058;-69
2021/12/19 09:31:22;;;;;;;35.38;28.85;;;;;;;;;;4985042;28;20042;-66
2021/12/19 09:33:50;;;;;;;37.42;30.73;;;;;;;;;;4987548;28;20061;-66
2021/12/19 09:36:17;;;;;;;35.10;30.35;;;;;;;;;;4989982;28;20050;-67
2021/12/19 09:38:48;;;;;;;36.63;29.77;;;;;;;;;;4991854;28;20047;-73
2021/12/19 09:41:28;;;;;;;35.50;28.90;;;;;;;;;;4972038;28;20046;-69
2021/12/19 09:44:03;;;;;;;36.80;28.30;;;;;;;;;;4991933;28;20042;-67
2021/12/19 09:46:31;;;;;;;;;;;;;;;;;;4984094;28;20053;-65
2021/12/19 09:48:58;;;;;;;30.45;26.67;;;;;;;;;;4978790;28;19929;-68
2021/12/19 09:51:25;;;;;;;32.08;26.27;;;;;;;;;;4979776;28;20069;-67
2021/12/19 09:53:52;;;;;;;37.55;29.13;;;;;;;;;;4969487;28;20104;-67
2021/12/19 09:56:19;;;;;;;31.27;27.48;;;;;;;;;;4987668;28;20042;-67
2021/12/19 09:58:49;;;;;;;30.17;25.10;;;;;;;;;;4979693;28;20037;-69
2021/12/19 10:01:16;;;;;;;29.55;23.73;;;;;;;;;;4975409;28;20774;-67
2021/12/19 10:03:43;;;;;;;29.35;23.40;;;;;;;;;;4978124;28;20034;-69
2021/12/19 10:06:33;;;;;;;27.95;23.45;;;;;;;;;;4982412;28;20045;-69
2021/12/19 10:09:11;;;;;;;28.10;22.75;;;;;;;;;;4984824;28;20053;-70
2021/12/19 10:12:11;;;;;;;30.83;24.17;;;;;;;;;;4984403;28;20058;-71
2021/12/19 10:14:38;;;;;;;25.15;20.70;;;;;;;;;;4985003;28;20050;-70
2021/12/19 10:17:08;;;;;;;28.75;22.75;;;;;;;;;;4991468;28;20404;-69
2021/12/19 10:19:46;;;;;;;25.55;21.17;;;;;;;;;;4970698;28;20142;-67
2021/12/19 10:22:22;;;;;;;23.55;21.00;;;;;;;;;;4976624;28;20050;-67
2021/12/19 10:24:49;;;;;;;25.73;19.15;;;;;;;;;;4974029;28;20379;-69
2021/12/19 10:27:33;;;;;;;22.80;18.30;;;;;;;;;;4976071;28;20490;-65
2021/12/19 10:30:00;;;;;;;26.35;19.65;;;;;;;;;;4977092;28;20038;-65
2021/12/19 10:32:27;;;;;;;22.58;18.58;;;;;;;;;;4978751;28;20394;-65
2021/12/19 10:35:13;;;;;;;20.90;18.55;;;;;;;;;;4974270;28;20042;-67
2021/12/19 10:37:40;;;;;;;22.15;18.08;;;;;;;;;;4974967;28;20035;-69
2021/12/19 10:40:07;;;;;;;20.20;17.10;;;;;;;;;;4976548;28;20047;-64
2021/12/19 10:42:58;;;;;;;22.75;18.10;;;;;;;;;;4984714;28;20042;-63
2021/12/19 10:45:35;;;;;;;20.45;16.52;;;;;;;;;;4991402;28;20077;-66
2021/12/19 10:48:13;;;;;;;20.65;17.40;;;;;;;;;;4983518;28;20042;-67
2021/12/19 10:50:49;;;;;;;19.95;16.98;;;;;;;;;;4989505;28;20050;-68
2021/12/19 10:53:17;;;;;;;28.20;20.50;;;;;;;;;;4989142;28;20046;-69
2021/12/19 10:55:47;;;;;;;23.00;19.00;;;;;;;;;;4986957;28;20047;-67
2021/12/19 10:58:27;;;;;;;24.10;18.35;;;;;;;;;;4991287;28;20053;-68
2021/12/19 11:01:05;;;;;;;19.02;14.73;;;;;;;;;;4993393;28;20050;-65
2021/12/19 11:03:42;;;;;;;18.45;15.48;;;;;;;;;;4979382;28;20077;-66
2021/12/19 11:06:19;;;;;;;18.23;15.27;;;;;;;;;;4992811;28;20121;-66
2021/12/19 11:08:50;;;;;;;20.42;15.48;;;;;;;;;;4990945;28;20046;-65
2021/12/19 11:11:47;;;;;;;20.70;17.17;;;;;;;;;;4990748;28;20108;-66
2021/12/19 11:14:17;;;;;;;15.65;14.05;;;;;;;;;;4990476;28;20146;-65
2021/12/19 11:16:44;;;;;;;19.17;15.15;;;;;;;;;;4993123;28;20038;-66
2021/12/19 11:19:12;;;;;;;18.67;15.68;;;;;;;;;;4991648;28;20519;-66
2021/12/19 11:21:39;;;;;;;26.80;17.55;;;;;;;;;;4988610;28;20096;-66
2021/12/19 11:24:11;;;;;;;24.95;17.45;;;;;;;;;;4977876;28;20053;-64
2021/12/19 11:26:40;;;;;;;22.60;16.23;;;;;;;;;;4992131;28;20038;-65
2021/12/19 11:29:08;;;;;;;22.02;17.67;;;;;;;;;;4991498;28;20054;-65
2021/12/19 11:31:35;;;;;;;20.73;16.00;;;;;;;;;;4994650;28;20038;-64
2021/12/19 11:34:24;;;;;;;19.30;15.45;;;;;;;;;;4981992;28;20057;-66
2021/12/19 11:37:08;;;;;;;21.05;16.75;;;;;;;;;;4978829;28;20105;-64
2021/12/19 11:39:39;;;;;;;20.23;14.45;;;;;;;;;;4977158;28;20058;-62
2021/12/19 11:42:15;;;;;;;15.88;14.25;;;;;;;;;;4976026;28;20047;-63
2021/12/19 11:47:44;;;;;;;17.15;13.27;;;;;;;;;;4993217;28;20477;-62
2021/12/19 11:50:28;;;;;;;16.90;13.30;;;;;;;;;;4995876;28;20050;-63
2021/12/19 11:52:58;;;;;;;19.00;13.13;;;;;;;;;;4996182;28;20449;-62
2021/12/19 11:55:28;;;;;;;16.40;11.63;;;;;;;;;;4995579;28;20085;-61
2021/12/19 11:58:07;;;;;;;13.93;12.43;;;;;;;;;;4996341;28;20139;-63
2021/12/19 12:00:39;;;;;;;15.02;13.43;;;;;;;;;;4995665;28;20058;-63
2021/12/19 12:03:12;;;;;;;12.77;11.25;;;;;;;;;;4980736;28;20035;-63
2021/12/19 12:05:47;;;;;;;11.45;10.18;;;;;;;;;;4983182;28;20062;-61
2021/12/19 12:08:21;;;;;;;12.02;10.77;;;;;;;;;;4978551;28;20355;-63
2021/12/19 12:10:51;;;;;;;18.10;12.77;;;;;;;;;;4989696;28;20052;-62
2021/12/19 12:13:21;;;;;;;15.48;11.93;;;;;;;;;;4986593;28;20047;-61
2021/12/19 12:15:51;;;;;;;16.45;12.85;;;;;;;;;;4980850;28;20074;-61
2021/12/19 12:18:39;;;;;;;20.33;13.27;;;;;;;;;;4979987;28;20047;-63
2021/12/19 12:21:18;;;;;;;21.58;13.00;;;;;;;;;;4993303;28;20386;-63
2021/12/19 12:23:52;;;;;;;15.48;11.38;;;;;;;;;;4994368;28;20046;-63
2021/12/19 12:26:35;;;;;;;19.27;11.73;;;;;;;;;;4995023;28;20042;-63
2021/12/19 12:29:03;;;;;;;19.60;11.95;;;;;;;;;;4979684;28;20042;-64
2021/12/19 12:31:30;;;;;;;16.02;12.00;;;;;;;;;;4995682;28;20070;-63
2021/12/19 12:33:57;;;;;;;17.52;12.48;;;;;;;;;;4994770;28;20084;-64
2021/12/19 12:36:24;;;;;;;17.23;12.02;;;;;;;;;;4992430;28;20071;-63
2021/12/19 12:38:52;;;;;;;17.73;10.55;;;;;;;;;;4990164;28;20047;-64
2021/12/19 12:41:50;;;;;;;14.68;10.13;;;;;;;;;;4994485;28;20049;-64
2021/12/19 12:44:22;;;;;;;13.48;9.40;;;;;;;;;;4992631;28;20054;-64
2021/12/19 12:46:50;;;;;;;11.25;9.48;;;;;;;;;;4973547;28;20057;-64
2021/12/19 12:49:25;;;;;;;17.42;10.32;;;;;;;;;;4974685;28;20497;-64
2021/12/19 12:51:58;;;;;;;19.17;10.75;;;;;;;;;;4993091;28;20050;-64
2021/12/19 12:54:32;;;;;;;13.85;8.75;;;;;;;;;;4992373;28;20049;-64
2021/12/19 12:57:05;;;;;;;14.45;10.57;;;;;;;;;;4993470;28;20042;-63
2021/12/19 12:59:36;;;;;;;15.55;11.02;;;;;;;;;;4993558;28;20050;-63
2021/12/19 13:02:13;;;;;;;11.98;8.95;;;;;;;;;;4993288;28;20121;-63
2021/12/19 13:04:42;;;;;;;11.80;9.25;;;;;;;;;;4994658;28;20047;-66
2021/12/19 13:07:24;;;;;;;16.30;10.75;;;;;;;;;;4989178;28;20587;-62
2021/12/19 13:10:00;;;;;;;17.92;11.88;;;;;;;;;;4994024;28;20052;-64
2021/12/19 13:12:46;;;;;;;21.33;14.38;;;;;;;;;;5012330;28;20099;-64
2021/12/19 13:15:15;;;;;;;16.17;11.55;;;;;;;;;;5013145;28;20038;-65
2021/12/19 13:17:50;;;;;;;14.40;11.00;;;;;;;;;;5013214;28;20049;-64
2021/12/19 13:20:25;;;;;;;13.43;11.32;;;;;;;;;;5012548;28;20053;-64
2021/12/19 13:22:54;;;;;;;15.02;11.23;;;;;;;;;;5012593;28;20056;-62
2021/12/19 13:25:26;;;;;;;12.27;9.95;;;;;;;;;;5013185;28;20064;-62
2021/12/19 13:27:56;;;;;;;10.88;8.88;;;;;;;;;;5012693;28;20522;-66
2021/12/19 13:30:29;;;;;;;11.77;9.30;;;;;;;;;;5006212;28;20050;-63
2021/12/19 13:33:07;;;;;;;10.65;9.55;;;;;;;;;;4993393;28;20189;-63
2021/12/19 13:35:40;;;;;;;10.38;8.68;;;;;;;;;;4993948;28;20057;-62
2021/12/19 13:38:14;;;;;;;11.38;9.80;;;;;;;;;;4985250;28;20089;-62
2021/12/19 13:40:56;;;;;;;12.77;9.03;;;;;;;;;;4978918;28;20038;-63
2021/12/19 13:43:26;;;;;;;10.80;8.85;;;;;;;;;;4986781;28;20038;-62
2021/12/19 13:45:56;;;;;;;10.30;9.30;;;;;;;;;;4993930;28;20050;-62
2021/12/19 13:48:27;;;;;;;13.02;10.40;;;;;;;;;;4994118;28;20046;-62
2021/12/19 13:51:00;;;;;;;12.85;9.35;;;;;;;;;;4984272;28;20490;-63
2021/12/19 13:53:35;;;;;;;13.82;9.07;;;;;;;;;;4980616;28;20397;-62
2021/12/19 13:56:08;;;;;;;14.05;10.25;;;;;;;;;;4979804;28;20069;-62
2021/12/19 13:58:38;;;;;;;13.00;9.57;;;;;;;;;;4994270;28;20042;-64
2021/12/19 14:01:13;;;;;;;16.83;11.75;;;;;;;;;;4993113;28;20133;-63
2021/12/19 14:03:41;;;;;;;14.55;10.48;;;;;;;;;;4993207;28;20453;-67
2021/12/19 14:06:10;;;;;;;9.55;8.32;;;;;;;;;;4992873;28;20064;-67
2021/12/19 14:08:39;;;;;;;22.13;10.00;;;;;;;;;;4993867;28;20516;-66
2021/12/19 14:11:21;;;;;;;11.88;9.70;;;;;;;;;;4993554;28;20042;-67
2021/12/19 14:14:02;;;;;;;20.15;12.43;;;;;;;;;;4993283;28;20047;-64
2021/12/19 14:16:34;;;;;;;23.77;14.30;;;;;;;;;;4993205;28;20042;-65
2021/12/19 14:19:01;;;;;;;17.38;12.98;;;;;;;;;;4993678;28;20052;-65
2021/12/19 14:21:37;;;;;;;15.80;12.23;;;;;;;;;;4987214;28;20296;-66
2021/12/19 14:24:14;;;;;;;19.30;13.93;;;;;;;;;;4993236;28;20049;-65
2021/12/19 14:26:45;;;;;;;24.48;17.67;;;;;;;;;;4993529;28;20462;-70
2021/12/19 14:29:20;;;;;;;24.17;16.58;;;;;;;;;;4990504;28;20046;-67
2021/12/19 14:31:53;;;;;;;32.25;19.77;;;;;;;;;;4987977;28;20053;-67
2021/12/19 14:34:24;;;;;;;26.77;16.98;;;;;;;;;;4990445;28;20069;-68
2021/12/19 14:36:51;;;;;;;17.85;14.32;;;;;;;;;;4994905;28;20116;-70
2021/12/19 14:39:27;;;;;;;15.05;11.25;;;;;;;;;;4999752;28;20519;-66
2021/12/19 14:42:10;;;;;;;11.93;9.48;;;;;;;;;;4994101;28;20166;-68
2021/12/19 14:44:38;;;;;;;10.80;9.32;;;;;;;;;;4998242;28;20137;-68
2021/12/19 14:47:07;;;;;;;12.18;10.90;;;;;;;;;;5003335;28;20100;-68
2021/12/19 14:49:47;;;;;;;13.35;11.73;;;;;;;;;;5001041;28;20070;-68
2021/12/19 14:52:26;;;;;;;11.80;10.60;;;;;;;;;;4985678;28;20042;-70
2021/12/19 14:55:17;;;;;;;10.45;9.23;;;;;;;;;;4983315;28;20610;-69
2021/12/19 14:57:44;;;;;;;11.65;9.90;;;;;;;;;;4982254;28;20035;-70
2021/12/19 15:00:11;;;;;;;11.65;9.20;;;;;;;;;;4980923;28;20043;-69
2021/12/19 15:02:38;;;;;;;11.57;9.38;;;;;;;;;;4981092;28;20049;-69
2021/12/19 15:05:05;;;;;;;12.75;10.10;;;;;;;;;;4984619;28;20054;-69
2021/12/19 15:07:32;;;;;;;11.80;10.35;;;;;;;;;;4979872;28;20039;-70
2021/12/19 15:09:59;;;;;;;14.20;11.55;;;;;;;;;;4984466;28;20404;-68
2021/12/19 15:12:27;;;;;;;15.63;13.75;;;;;;;;;;4990184;28;20405;-68
2021/12/19 15:14:54;;;;;;;15.50;10.07;;;;;;;;;;4986780;28;20045;-69
2021/12/19 15:17:21;;;;;;;12.63;11.32;;;;;;;;;;4994203;28;20046;-69
2021/12/19 15:19:48;;;;;;;11.50;10.15;;;;;;;;;;5004246;28;20098;-69
2021/12/19 15:22:15;;;;;;;14.27;10.50;;;;;;;;;;4998508;28;20049;-70
2021/12/19 15:24:41;;;;;;;19.13;11.95;;;;;;;;;;4992713;28;20053;-70
2021/12/19 15:27:08;;;;;;;14.32;12.13;;;;;;;;;;4981819;28;20408;-69
2021/12/19 15:29:35;;;;;;;13.45;12.10;;;;;;;;;;4992835;28;20042;-69
2021/12/19 15:32:03;;;;;;;14.50;13.10;;;;;;;;;;5000308;28;20097;-70
2021/12/19 15:34:30;;;;;;;15.30;13.57;;;;;;;;;;4989596;28;20063;-70
2021/12/19 15:36:57;;;;;;;12.50;11.30;;;;;;;;;;4994573;28;20046;-70
2021/12/19 15:39:24;;;;;;;12.18;11.02;;;;;;;;;;4999820;28;20480;-68
2021/12/19 15:41:51;;;;;;;13.30;11.65;;;;;;;;;;4994713;28;20409;-70
2021/12/19 15:44:18;;;;;;;13.73;11.05;;;;;;;;;;4984108;28;20047;-66
2021/12/19 15:46:46;;;;;;;13.45;11.90;;;;;;;;;;4990072;28;20134;-73
2021/12/19 15:49:13;;;;;;;11.75;9.75;;;;;;;;;;4984751;28;20093;-72
2021/12/19 15:51:40;;;;;;;11.85;10.23;;;;;;;;;;5005836;28;20045;-70